Time;durP1;ratioP1;P1;durP2;ratioP2;P2;SDS_P1;SDS_P2;PMS_P1;PMS_P2;Temp;Humidity;BMP_temperature;BMP_pressure;BME280_temperature;BME280_humidity;BME280_pressure;Samples;Min_cycle;Max_cycle;Signal;HPM_P1;HPM_P2
2023/05/11 00:00:30;;;;;;;71.47;28.48;;;;;;;12.03;100.00;101379.47;6107213;23;20133;-96
2023/05/11 00:02:56;;;;;;;71.47;29.15;;;;;;;12.02;100.00;101385.56;6105619;23;20002;-96
2023/05/11 00:05:21;;;;;;;73.68;29.75;;;;;;;12.04;100.00;101378.63;6105283;23;20017;-96
2023/05/11 00:07:46;;;;;;;76.60;29.20;;;;;;;12.05;100.00;101380.41;6106492;23;20010;-96
2023/05/11 00:10:12;;;;;;;77.55;29.33;;;;;;;12.07;100.00;101372.59;6105548;23;20005;-96
2023/05/11 00:12:37;;;;;;;81.10;29.70;;;;;;;12.07;100.00;101372.59;6104599;23;20002;-96
2023/05/11 00:15:03;;;;;;;76.38;29.48;;;;;;;12.05;100.00;101366.44;6105519;23;20006;-96
2023/05/11 00:17:28;;;;;;;73.38;29.98;;;;;;;12.02;100.00;101364.66;6105817;23;19998;-96
2023/05/11 00:19:54;;;;;;;83.88;29.60;;;;;;;12.00;100.00;101358.50;6105614;23;20005;-96
2023/05/11 00:22:20;;;;;;;76.55;29.92;;;;;;;11.95;100.00;101352.28;6107286;23;20021;-96
2023/05/11 00:24:45;;;;;;;80.28;30.98;;;;;;;11.90;100.00;101349.50;6108014;23;20002;-96
2023/05/11 00:27:10;;;;;;;79.25;30.02;;;;;;;11.87;100.00;101352.03;6106865;23;20104;-96
2023/05/11 00:29:36;;;;;;;81.75;31.67;;;;;;;11.84;100.00;101354.56;6108006;23;20038;-96
2023/05/11 00:32:01;;;;;;;81.47;30.85;;;;;;;11.82;100.00;101358.88;6107258;23;19998;-96
2023/05/11 00:34:27;;;;;;;82.28;31.13;;;;;;;11.81;100.00;101363.19;6107650;23;19998;-96
2023/05/11 00:36:52;;;;;;;90.18;31.80;;;;;;;11.82;100.00;101372.81;6106183;23;20420;-96
2023/05/11 00:39:18;;;;;;;86.43;31.35;;;;;;;11.80;100.00;101368.38;6106532;23;20088;-96
2023/05/11 00:41:43;;;;;;;82.45;31.02;;;;;;;11.78;100.00;101370.94;6107255;23;20058;-96
2023/05/11 00:44:09;;;;;;;90.78;32.60;;;;;;;11.74;100.00;101376.03;6107827;23;20006;-96
2023/05/11 00:46:35;;;;;;;94.80;32.70;;;;;;;11.71;100.00;101371.63;6107104;23;20512;-96
2023/05/11 00:49:01;;;;;;;87.25;30.20;;;;;;;11.72;100.00;101372.53;6107248;23;20041;-96
2023/05/11 00:51:26;;;;;;;84.65;30.00;;;;;;;11.75;100.00;101385.66;6132146;23;20076;-96
2023/05/11 00:53:52;;;;;;;90.50;32.35;;;;;;;11.77;100.00;101379.59;6106686;23;20041;-96
2023/05/11 00:56:18;;;;;;;89.88;32.03;;;;;;;11.80;100.00;101387.56;6108791;23;20010;-96
2023/05/11 00:58:44;;;;;;;94.00;31.48;;;;;;;11.80;100.00;101386.66;6106942;23;20010;-96
2023/05/11 01:01:09;;;;;;;94.40;33.83;;;;;;;11.81;100.00;101386.69;6105351;23;20025;-96
2023/05/11 01:03:35;;;;;;;84.72;31.38;;;;;;;11.82;100.00;101388.47;6105965;23;20060;-96
2023/05/11 01:06:23;;;;;;;91.18;32.58;;;;;;;11.84;100.00;101385.91;6105399;23;20356;-96
2023/05/11 01:09:05;;;;;;;90.97;32.83;;;;;;;11.83;100.00;101381.50;6105806;23;20010;-96
2023/05/11 01:11:42;;;;;;;93.22;33.20;;;;;;;11.83;100.00;101385.03;6106260;23;20243;-96
2023/05/11 01:14:27;;;;;;;97.82;32.90;;;;;;;11.82;100.00;101382.38;6106612;23;20369;-96
2023/05/11 01:16:58;;;;;;;84.60;30.02;;;;;;;11.79;100.00;101380.56;6107102;23;20044;-96
2023/05/11 01:19:23;;;;;;;85.78;31.58;;;;;;;11.79;100.00;101377.94;6109265;23;20429;-96
2023/05/11 01:21:50;;;;;;;93.40;33.67;;;;;;;11.78;100.00;101384.00;6107110;23;20104;-96
2023/05/11 01:24:36;;;;;;;99.72;34.70;;;;;;;11.79;100.00;101385.78;6108882;23;20069;-96
2023/05/11 01:27:38;;;;;;;102.28;34.38;;;;;;;11.79;100.00;101387.50;6108757;23;20010;-96
2023/05/11 01:30:22;;;;;;;95.78;33.38;;;;;;;11.79;100.00;101382.28;6110906;23;20010;-96
2023/05/11 01:32:47;;;;;;;95.07;32.58;;;;;;;11.81;100.00;101381.47;6109319;23;20064;-96
2023/05/11 01:35:22;;;;;;;108.60;34.58;;;;;;;11.80;100.00;101384.03;6108475;23;20009;-96
2023/05/11 01:37:51;;;;;;;100.57;34.92;;;;;;;11.81;100.00;101381.47;6110834;23;20064;-96
2023/05/11 01:40:22;;;;;;;99.03;34.45;;;;;;;11.82;100.00;101387.59;6110063;23;20005;-96
2023/05/11 01:42:58;;;;;;;96.93;35.88;;;;;;;11.84;100.00;101385.91;6110691;23;20010;-96
2023/05/11 01:45:25;;;;;;;98.70;35.67;;;;;;;11.84;100.00;101388.50;6110372;23;20009;-96
2023/05/11 01:47:54;;;;;;;103.50;35.47;;;;;;;11.85;100.00;101385.06;6110216;23;20014;-96
2023/05/11 01:50:23;;;;;;;93.80;33.20;;;;;;;11.85;100.00;101387.66;6108696;23;20459;-96
2023/05/11 01:52:50;;;;;;;103.78;34.17;;;;;;;11.83;100.00;101390.25;6108742;23;20044;-96
2023/05/11 01:55:20;;;;;;;102.53;34.03;;;;;;;11.84;100.00;101391.13;6108749;23;20069;-96
2023/05/11 01:57:47;;;;;;;94.63;33.08;;;;;;;11.84;100.00;101383.28;6109075;23;20033;-96
2023/05/11 02:00:15;;;;;;;103.47;34.35;;;;;;;11.82;100.00;101387.59;6108942;23;20010;-96
2023/05/11 02:02:44;;;;;;;102.57;36.42;;;;;;;11.79;100.00;101390.13;6107951;23;20010;-96
2023/05/11 02:05:10;;;;;;;;;;;;;;;11.80;100.00;101394.47;6112588;23;20014;-96
2023/05/11 02:07:37;;;;;;;94.38;33.28;;;;;;;11.73;100.00;101387.31;6111408;23;19928;-96
2023/05/11 02:10:03;;;;;;;109.45;37.38;;;;;;;11.70;100.00;101384.63;6112032;23;20002;-96
2023/05/11 02:12:30;;;;;;;114.72;37.03;;;;;;;11.69;100.00;101375.94;6113660;23;20079;-96
2023/05/11 02:14:56;;;;;;;110.82;37.80;;;;;;;11.67;100.00;101380.19;6114184;23;20037;-96
2023/05/11 02:17:24;;;;;;;110.88;37.28;;;;;;;11.63;100.00;101374.03;6113872;23;20491;-96
2023/05/11 02:19:50;;;;;;;115.22;37.95;;;;;;;11.64;100.00;101375.81;6151616;23;19998;-96
2023/05/11 02:22:16;;;;;;;114.40;36.33;;;;;;;11.61;100.00;101373.09;6128077;23;19990;-96
2023/05/11 02:24:42;;;;;;;105.20;35.50;;;;;;;11.58;100.00;101373.00;6124280;23;20013;-96
2023/05/11 02:27:07;;;;;;;111.55;37.17;;;;;;;11.56;100.00;101371.22;6130278;23;19994;-96
2023/05/11 02:29:33;;;;;;;104.55;35.45;;;;;;;11.55;100.00;101372.91;6120772;23;20037;-96
2023/05/11 02:32:14;;;;;;;109.28;36.20;;;;;;;11.58;100.00;101375.59;6145365;23;20058;-96
2023/05/11 02:34:42;;;;;;;109.43;38.20;;;;;;;11.57;100.00;101381.69;6117337;23;20089;-96
2023/05/11 02:37:11;;;;;;;120.85;38.72;;;;;;;11.58;100.00;101382.56;6118773;23;20002;-96
2023/05/11 02:39:38;;;;;;;124.15;39.10;;;;;;;11.57;100.00;101380.78;6117413;23;20021;-96
2023/05/11 02:42:14;;;;;;;113.63;38.65;;;;;;;11.56;100.00;101386.88;6104778;23;20077;-96
2023/05/11 02:44:47;;;;;;;119.03;39.05;;;;;;;11.55;100.00;101388.56;6104476;23;20017;-96
2023/05/11 02:47:14;;;;;;;120.57;38.35;;;;;;;11.56;100.00;101381.66;6105101;23;20006;-96
2023/05/11 02:49:43;;;;;;;117.22;38.58;;;;;;;11.58;100.00;101388.66;6132335;23;20002;-96
2023/05/11 02:52:09;;;;;;;114.97;36.75;;;;;;;11.57;100.00;101386.00;6105860;23;20037;-96
2023/05/11 02:54:36;;;;;;;107.55;35.83;;;;;;;11.52;100.00;101380.66;6105548;23;20006;-96
2023/05/11 02:57:02;;;;;;;115.05;39.42;;;;;;;11.49;100.00;101383.19;6133499;23;20009;-96
2023/05/11 02:59:29;;;;;;;116.55;37.40;;;;;;;11.45;100.00;101383.94;6104438;23;20002;-96
2023/05/11 03:01:55;;;;;;;123.70;38.28;;;;;;;11.49;100.00;101380.59;6105527;23;20009;-96
2023/05/11 03:04:21;;;;;;;114.78;37.63;;;;;;;11.51;100.00;101373.66;6105473;23;20029;-96
2023/05/11 03:06:47;;;;;;;121.22;38.13;;;;;;;11.55;100.00;101383.34;6104435;23;20013;-96
2023/05/11 03:09:12;;;;;;;113.55;35.80;;;;;;;11.57;100.00;101386.91;6103997;23;20359;-96
2023/05/11 03:11:38;;;;;;;116.38;37.97;;;;;;;11.56;100.00;101387.75;6102329;23;20076;-96
2023/05/11 03:14:03;;;;;;;113.18;38.30;;;;;;;11.57;100.00;101384.31;6129019;23;20002;-96
2023/05/11 03:16:30;;;;;;;118.88;40.13;;;;;;;11.58;100.00;101393.88;6129547;23;20014;-96
2023/05/11 03:18:56;;;;;;;125.55;40.22;;;;;;;11.58;100.00;101391.28;6129587;23;20081;-96
2023/05/11 03:21:23;;;;;;;131.55;39.17;;;;;;;11.56;100.00;101382.53;6102983;23;20040;-96
2023/05/11 03:23:49;;;;;;;130.57;40.67;;;;;;;11.59;100.00;101390.44;6104052;23;20010;-96
2023/05/11 03:26:17;;;;;;;132.82;41.75;;;;;;;11.58;100.00;101391.28;6128001;23;20013;-96
2023/05/11 03:28:43;;;;;;;142.20;40.83;;;;;;;11.57;100.00;101389.53;6102811;23;20005;-96
2023/05/11 03:31:09;;;;;;;144.98;43.28;;;;;;;11.57;100.00;101394.75;6103296;23;20454;-96
2023/05/11 03:33:35;;;;;;;143.00;42.47;;;;;;;11.57;100.00;101386.00;6102913;23;20084;-96
2023/05/11 03:36:02;;;;;;;132.80;41.63;;;;;;;11.55;100.00;101391.19;6102392;23;20006;-96
2023/05/11 03:38:29;;;;;;;146.77;42.53;;;;;;;11.57;100.00;101391.22;6102986;23;20002;-96
2023/05/11 03:40:56;;;;;;;147.55;44.80;;;;;;;11.54;100.00;101385.94;6101486;23;20032;-96
2023/05/11 03:43:25;;;;;;;145.50;44.38;;;;;;;11.54;100.00;101392.03;6101559;23;20345;-96
2023/05/11 03:45:52;;;;;;;140.80;42.47;;;;;;;11.53;100.00;101387.66;6103138;23;20013;-96
2023/05/11 03:48:19;;;;;;;146.95;45.03;;;;;;;11.51;100.00;101388.44;6102502;23;20006;-96
2023/05/11 03:50:46;;;;;;;137.93;43.45;;;;;;;11.46;100.00;101383.09;6103005;23;20006;-96
2023/05/11 03:53:12;;;;;;;144.82;44.30;;;;;;;11.43;100.00;101385.63;6102753;23;20002;-96
2023/05/11 03:55:37;;;;;;;168.52;49.25;;;;;;;11.37;100.00;101386.34;6108082;23;20012;-96
2023/05/11 03:58:10;;;;;;;168.48;50.40;;;;;;;11.34;100.00;101387.97;6107757;23;20001;-96
2023/05/11 04:00:40;;;;;;;138.70;43.38;;;;;;;11.33;100.00;101387.09;6080076;23;20021;-96
2023/05/11 04:03:07;;;;;;;143.63;44.58;;;;;;;11.29;100.00;101386.09;6105212;23;20005;-96
2023/05/11 04:05:32;;;;;;;143.88;43.55;;;;;;;11.27;100.00;101384.31;6102989;23;20023;-96
2023/05/11 04:07:58;;;;;;;137.40;42.40;;;;;;;11.29;100.00;101388.69;6101933;23;20076;-96
2023/05/11 04:10:23;;;;;;;144.80;43.97;;;;;;;11.32;100.00;101382.69;6101574;23;20542;-96
2023/05/11 04:12:49;;;;;;;144.35;44.78;;;;;;;11.29;100.00;101393.91;6101413;23;20010;-96
2023/05/11 04:15:14;;;;;;;141.38;43.60;;;;;;;11.27;100.00;101387.78;6102303;23;20002;-96
2023/05/11 04:17:40;;;;;;;138.82;41.40;;;;;;;11.27;100.00;101393.00;6103178;23;20062;-96
2023/05/11 04:20:06;;;;;;;132.73;43.33;;;;;;;11.28;100.00;101383.44;6104758;23;20081;-96
2023/05/11 04:22:32;;;;;;;133.48;41.33;;;;;;;11.28;100.00;101388.66;6084749;23;20014;-96
2023/05/11 04:24:57;;;;;;;160.60;50.25;;;;;;;11.28;100.00;101389.56;6104124;23;20013;-96
2023/05/11 04:27:22;;;;;;;164.05;49.13;;;;;;;11.29;100.00;101390.44;6104943;23;20460;-96
2023/05/11 04:29:48;;;;;;;133.52;42.03;;;;;;;11.29;100.00;101391.31;6106276;23;20010;-96
2023/05/11 04:32:14;;;;;;;126.22;41.47;;;;;;;11.29;100.00;101395.66;6108990;23;20025;-96
2023/05/11 04:34:40;;;;;;;135.43;41.63;;;;;;;11.29;100.00;101391.31;6096535;23;20499;-96
2023/05/11 04:37:06;;;;;;;144.27;44.33;;;;;;;11.28;100.00;101392.19;6101486;23;20476;-96
2023/05/11 04:39:32;;;;;;;143.20;45.80;;;;;;;11.28;100.00;101392.19;6113452;23;20061;-96
2023/05/11 04:41:58;;;;;;;146.52;44.15;;;;;;;11.28;100.00;101386.97;6107103;23;20020;-96
2023/05/11 04:44:24;;;;;;;136.75;43.67;;;;;;;11.25;100.00;101392.09;6111946;23;19998;-96
2023/05/11 04:46:53;;;;;;;162.23;46.67;;;;;;;11.28;100.00;101397.38;6113997;23;20065;-96
2023/05/11 04:49:19;;;;;;;146.02;45.65;;;;;;;11.29;100.00;101395.66;6115485;23;20057;-58
2023/05/11 04:51:44;;;;;;;156.55;45.03;;;;;;;11.29;100.00;101398.25;6112903;23;20939;-96
2023/05/11 04:54:10;;;;;;;156.73;46.13;;;;;;;11.31;100.00;101401.78;6084009;23;20010;-77
2023/05/11 04:59:06;;;;;;;154.32;47.20;;;;;;;11.33;100.00;101412.31;6127870;23;20033;-96
2023/05/11 05:01:32;;;;;;;162.63;46.17;;;;;;;11.30;100.00;101413.97;6109284;23;20045;-96
2023/05/11 05:03:57;;;;;;;157.90;45.65;;;;;;;11.27;100.00;101411.25;6107483;23;20061;-96
2023/05/11 05:06:23;;;;;;;174.30;47.30;;;;;;;11.30;100.00;101418.31;6109452;23;19998;-96
2023/05/11 05:08:48;;;;;;;174.13;46.40;;;;;;;11.33;100.00;101422.75;6111452;23;20439;-96
2023/05/11 05:11:13;;;;;;;171.57;50.42;;;;;;;11.37;100.00;101414.13;6116829;23;20014;-96
2023/05/11 05:13:39;;;;;;;168.10;49.45;;;;;;;11.40;100.00;101425.56;6122233;23;20062;-96
2023/05/11 05:16:04;;;;;;;179.52;48.28;;;;;;;11.44;100.00;101426.53;6119772;23;20017;-96
2023/05/11 05:18:30;;;;;;;183.32;48.92;;;;;;;11.44;100.00;101427.44;6121989;23;19998;-96
2023/05/11 05:20:55;;;;;;;178.88;48.03;;;;;;;11.44;100.00;101423.91;6147137;23;20017;-96
2023/05/11 05:23:21;;;;;;;182.27;49.30;;;;;;;11.45;100.00;101433.53;6115071;23;20009;-96
2023/05/11 05:25:46;;;;;;;188.68;49.95;;;;;;;11.48;100.00;101431.00;6116351;23;19998;-96
2023/05/11 05:28:11;;;;;;;174.82;50.03;;;;;;;11.46;100.00;101427.47;6117653;23;20099;-96
2023/05/11 05:30:37;;;;;;;189.52;50.67;;;;;;;11.47;100.00;101431.81;6141238;23;20002;-96
2023/05/11 05:33:02;;;;;;;173.85;48.33;;;;;;;11.47;100.00;101431.81;6115628;23;19998;-96
2023/05/11 05:35:27;;;;;;;189.35;51.30;;;;;;;11.48;100.00;101436.22;6107436;23;20006;-96
2023/05/11 05:37:53;;;;;;;179.10;50.53;;;;;;;11.54;100.00;101438.13;6102160;23;20009;-96
2023/05/11 05:40:18;;;;;;;192.88;50.45;;;;;;;11.56;100.00;101445.16;6098788;23;19997;-96
2023/05/11 05:42:44;;;;;;;180.27;49.42;;;;;;;11.61;100.00;101434.84;6132566;23;19998;-96
2023/05/11 05:45:11;;;;;;;192.20;49.03;;;;;;;11.64;100.00;101443.69;6104235;23;20002;-96
2023/05/11 05:47:36;;;;;;;184.95;49.25;;;;;;;11.65;100.00;101440.19;6088864;23;20025;-58
2023/05/11 05:50:02;;;;;;;180.35;49.90;;;;;;;11.68;100.00;101439.41;6115737;23;20010;-96
2023/05/11 05:52:27;;;;;;;201.10;51.50;;;;;;;11.75;100.00;101443.09;6106525;23;20002;-96
2023/05/11 05:54:53;;;;;;;175.98;50.45;;;;;;;11.80;100.00;101442.38;6102500;23;20649;-96
2023/05/11 05:57:18;;;;;;;180.63;50.50;;;;;;;11.88;100.00;101446.94;6104069;23;20038;-96
2023/05/11 05:59:44;;;;;;;179.73;51.58;;;;;;;11.94;100.00;101445.38;6102230;23;20012;-96
2023/05/11 06:02:10;;;;;;;187.52;49.67;;;;;;;11.98;100.00;101447.25;6099722;23;20482;-96
2023/05/11 06:04:35;;;;;;;196.27;52.65;;;;;;;11.93;100.00;101454.06;6099077;23;20013;-96
2023/05/11 06:07:01;;;;;;;205.63;53.78;;;;;;;11.91;100.00;101455.72;6124625;23;20002;-96
2023/05/11 06:09:26;;;;;;;206.55;56.47;;;;;;;11.89;100.00;101457.41;6099702;23;20014;-96
2023/05/11 06:11:53;;;;;;;191.65;52.28;;;;;;;11.88;100.00;101450.41;6099958;23;20436;-96
2023/05/11 06:14:18;;;;;;;184.00;49.20;;;;;;;11.92;100.00;101457.50;6099049;23;19998;-96
2023/05/11 06:16:44;;;;;;;197.90;54.10;;;;;;;11.98;100.00;101467.28;6126421;23;20034;-96
2023/05/11 06:19:10;;;;;;;205.35;55.22;;;;;;;12.02;100.00;101463.00;6100335;23;20010;-96
2023/05/11 06:21:35;;;;;;;196.20;52.92;;;;;;;12.02;100.00;101465.63;6100861;23;20032;-96
2023/05/11 06:24:00;;;;;;;208.50;55.60;;;;;;;12.02;100.00;101468.22;6127839;23;20002;-96
2023/05/11 06:26:27;;;;;;;206.43;53.65;;;;;;;12.05;100.00;101463.09;6127009;23;20010;-96
2023/05/11 06:28:53;;;;;;;218.32;55.72;;;;;;;12.10;100.00;101466.72;6100484;23;20077;-96
2023/05/11 06:31:18;;;;;;;211.95;55.45;;;;;;;12.14;100.00;101463.34;6099223;23;20088;-96
2023/05/11 06:33:43;;;;;;;212.20;54.70;;;;;;;12.15;100.00;101465.09;6099858;23;20029;-96
2023/05/11 06:36:09;;;;;;;225.35;57.22;;;;;;;12.15;100.00;101471.22;6101360;23;20010;-96
2023/05/11 06:38:35;;;;;;;217.77;56.90;;;;;;;12.15;100.00;101462.50;6101848;23;20030;-96
2023/05/11 06:41:00;;;;;;;225.75;58.38;;;;;;;12.17;100.00;101468.66;6127325;23;20657;-96
2023/05/11 06:43:25;;;;;;;207.13;54.60;;;;;;;12.17;100.00;101474.75;6100165;23;20006;-96
2023/05/11 06:45:51;;;;;;;226.98;60.20;;;;;;;12.18;100.00;101470.44;6101452;23;20016;-96
2023/05/11 06:48:16;;;;;;;211.32;56.83;;;;;;;12.22;100.00;101472.25;6102059;23;20013;-96
2023/05/11 06:50:41;;;;;;;214.00;59.42;;;;;;;12.25;100.00;101471.47;6127862;23;20010;-96
2023/05/11 06:53:09;;;;;;;231.05;62.28;;;;;;;12.22;100.00;101472.25;6103477;23;20390;-96
2023/05/11 06:55:34;;;;;;;222.27;58.72;;;;;;;12.26;100.00;101473.25;6097917;23;20426;-59
2023/05/11 06:58:00;;;;;;;214.70;56.88;;;;;;;12.27;100.00;101485.47;6115854;23;20348;-96
2023/05/11 07:00:25;;;;;;;213.23;57.72;;;;;;;12.30;100.00;101489.03;6104216;23;20048;-96
2023/05/11 07:02:51;;;;;;;230.60;60.10;;;;;;;12.30;100.00;101489.03;6127665;23;20028;-96
2023/05/11 07:05:17;;;;;;;218.45;58.47;;;;;;;12.31;100.00;101480.38;6128714;23;20412;-96
2023/05/11 07:07:42;;;;;;;211.25;58.17;;;;;;;12.32;100.00;101482.09;6105713;23;20009;-96
2023/05/11 07:10:08;;;;;;;204.48;58.35;;;;;;;12.31;100.00;101490.81;6130112;23;20045;-96
2023/05/11 07:12:33;;;;;;;205.38;54.92;;;;;;;12.30;100.00;101496.00;6104410;23;20033;-96
2023/05/11 07:14:59;;;;;;;195.95;56.42;;;;;;;12.27;100.00;101486.34;6108694;23;20002;-96
2023/05/11 07:17:24;;;;;;;199.13;56.33;;;;;;;12.28;100.00;101492.44;6131468;23;19998;-96
2023/05/11 07:19:54;;;;;;;205.25;55.78;;;;;;;12.29;100.00;101494.22;6131018;23;20006;-96
2023/05/11 07:22:19;;;;;;;190.60;55.45;;;;;;;12.31;100.00;101492.53;6106406;23;20009;-96
2023/05/11 07:24:45;;;;;;;187.60;52.47;;;;;;;12.31;100.00;101485.59;6114570;23;20084;-96
2023/05/11 07:27:11;;;;;;;197.75;55.47;;;;;;;12.33;100.00;101490.84;6112987;23;20001;-96
2023/05/11 07:29:45;;;;;;;192.43;53.55;;;;;;;12.35;100.00;101490.06;6109772;23;20041;-96
2023/05/11 07:32:11;;;;;;;192.60;53.92;;;;;;;12.37;100.00;101491.81;6092658;23;20010;-59
2023/05/11 07:34:36;;;;;;;204.02;54.40;;;;;;;12.37;100.00;101497.94;6104913;23;20025;-59
2023/05/11 07:37:01;;;;;;;204.60;55.00;;;;;;;12.37;100.00;101494.41;6131369;23;20026;-96
2023/05/11 07:39:27;;;;;;;204.10;55.10;;;;;;;12.41;100.00;101491.06;6106299;23;20006;-96
2023/05/11 07:41:52;;;;;;;215.88;59.15;;;;;;;12.41;100.00;101491.06;6106001;23;19994;-96
2023/05/11 07:44:17;;;;;;;221.98;60.20;;;;;;;12.42;100.00;101492.84;6110683;23;20440;-96
2023/05/11 07:46:43;;;;;;;273.52;64.05;;;;;;;12.41;100.00;101493.66;6130357;23;20025;-96
2023/05/11 07:49:09;;;;;;;269.63;64.18;;;;;;;12.44;100.00;101498.97;6111640;23;20012;-96
2023/05/11 07:51:36;;;;;;;260.45;64.82;;;;;;;12.45;100.00;101500.75;6136795;23;20037;-96
2023/05/11 07:54:01;;;;;;;269.98;63.40;;;;;;;12.41;100.00;101498.88;6103496;23;20459;-96
2023/05/11 07:56:26;;;;;;;258.92;61.45;;;;;;;12.42;100.00;101506.78;6104154;23;20009;-96
2023/05/11 07:58:52;;;;;;;230.75;55.58;;;;;;;12.47;100.00;101506.88;6108791;23;20017;-96
2023/05/11 08:01:17;;;;;;;249.98;62.75;;;;;;;12.43;100.00;101502.44;6135231;23;20037;-96
2023/05/11 08:03:43;;;;;;;251.43;59.22;;;;;;;12.41;100.00;101504.13;6112440;23;20002;-96
2023/05/11 08:06:08;;;;;;;242.57;58.70;;;;;;;12.45;100.00;101505.97;6107808;23;20017;-96
2023/05/11 08:08:33;;;;;;;240.80;62.05;;;;;;;12.44;100.00;101509.44;6093143;23;20702;-80
2023/05/11 08:11:00;;;;;;;251.27;57.58;;;;;;;12.49;100.00;101503.47;6087382;23;20010;-80
2023/05/11 08:13:25;;;;;;;242.65;57.33;;;;;;;12.56;100.00;101511.47;6090561;23;20027;-80
2023/05/11 08:15:52;;;;;;;238.15;56.58;;;;;;;12.61;100.00;101509.88;6112113;23;20021;-59
2023/05/11 08:18:17;;;;;;;245.65;57.97;;;;;;;12.60;100.00;101511.63;6103862;23;20090;-59
2023/05/11 08:23:16;;;;;;;279.80;59.72;;;;;;;12.58;100.00;101505.44;6058418;23;20054;-80
2023/05/11 08:25:48;;;;;;;243.15;56.20;;;;;;;12.57;100.00;101519.38;6091929;23;20014;-96
2023/05/11 08:28:13;;;;;;;252.23;57.90;;;;;;;12.48;100.00;101519.13;6095431;23;20196;-96
2023/05/11 08:30:39;;;;;;;271.02;60.22;;;;;;;12.47;100.00;101512.13;6091667;23;20015;-96
2023/05/11 08:33:04;;;;;;;262.38;57.75;;;;;;;12.45;100.00;101508.59;6081752;23;20402;-96
2023/05/11 08:35:29;;;;;;;267.67;59.13;;;;;;;12.44;100.00;101515.56;6073422;23;20014;-96
2023/05/11 08:37:55;;;;;;;245.70;57.25;;;;;;;12.42;100.00;101508.50;6101513;23;19995;-96
2023/05/11 08:40:22;;;;;;;261.20;58.22;;;;;;;12.42;100.00;101516.34;6108381;23;20006;-96
2023/05/11 08:42:52;;;;;;;281.48;60.78;;;;;;;12.47;100.00;101509.50;6077123;23;20021;-96
2023/05/11 08:45:19;;;;;;;261.20;57.33;;;;;;;12.55;100.00;101510.59;6073305;23;20014;-96
2023/05/11 08:47:46;;;;;;;292.40;63.05;;;;;;;12.56;100.00;101511.47;6102487;23;20010;-96
2023/05/11 08:50:11;;;;;;;271.98;56.58;;;;;;;12.59;100.00;101514.19;6072797;23;20025;-96
2023/05/11 08:52:37;;;;;;;290.80;60.25;;;;;;;12.57;100.00;101511.53;6072448;23;20002;-96
2023/05/11 08:55:02;;;;;;;289.80;61.83;;;;;;;12.66;100.00;101519.59;6106528;23;20054;-96
2023/05/11 08:57:31;;;;;;;288.67;64.43;;;;;;;12.68;100.00;101512.69;6077863;23;20012;-96
2023/05/11 08:59:57;;;;;;;289.03;61.53;;;;;;;12.76;100.00;101514.59;6077457;23;20002;-96
2023/05/11 09:02:23;;;;;;;263.80;56.78;;;;;;;12.81;100.00;101513.00;6079902;23;20274;-96
2023/05/11 09:04:50;;;;;;;268.70;60.20;;;;;;;12.75;100.00;101516.34;6080957;23;20034;-80
2023/05/11 09:07:16;;;;;;;290.33;63.22;;;;;;;12.79;100.00;101512.06;6094649;23;20132;-96
2023/05/11 09:09:42;;;;;;;267.05;60.00;;;;;;;12.87;100.00;101518.38;6076580;23;20006;-96
2023/05/11 09:12:08;;;;;;;268.67;61.17;;;;;;;12.96;100.00;101526.47;6101317;23;20029;-96
2023/05/11 09:14:34;;;;;;;289.85;63.90;;;;;;;12.79;100.00;101526.03;6076339;23;20409;-96
2023/05/11 09:16:59;;;;;;;287.42;60.63;;;;;;;12.88;100.00;101526.25;6102017;23;20002;-96
2023/05/11 09:19:24;;;;;;;296.55;64.32;;;;;;;12.84;100.00;101526.16;6080080;23;20429;-96
2023/05/11 09:21:52;;;;;;;279.00;63.08;;;;;;;12.98;100.00;101529.13;6077461;23;20002;-96
2023/05/11 09:24:19;;;;;;;266.05;55.47;;;;;;;12.98;100.00;101527.38;6076482;23;20026;-96
2023/05/11 09:26:44;;;;;;;289.88;59.40;;;;;;;13.10;100.00;101523.31;6101935;23;20029;-96
2023/05/11 09:29:10;;;;;;;277.27;61.08;;;;;;;13.26;100.00;101529.78;6076101;23;20332;-96
2023/05/11 09:31:44;;;;;;;269.13;60.00;;;;;;;13.27;100.00;101532.44;6076543;23;20021;-96
2023/05/11 09:34:18;;;;;;;269.10;57.78;;;;;;;13.35;100.00;101530.94;6104100;23;20003;-96
2023/05/11 09:36:47;;;;;;;266.65;57.78;;;;;;;13.39;100.00;101531.88;6079954;23;20007;-96
2023/05/11 09:39:13;;;;;;;269.17;61.42;;;;;;;13.43;100.00;101533.72;6104842;23;20104;-96
2023/05/11 09:41:39;;;;;;;254.85;56.65;;;;;;;13.51;100.00;101526.03;6081299;23;20002;-96
2023/05/11 09:44:14;;;;;;;269.15;59.35;;;;;;;13.50;100.00;101527.75;6079794;23;20002;-96
2023/05/11 09:46:42;;;;;;;268.88;60.45;;;;;;;13.59;100.00;101532.31;6105580;23;20066;-96
2023/05/11 09:49:08;;;;;;;253.23;57.28;;;;;;;13.55;100.00;101533.97;6079593;23;20037;-96
2023/05/11 09:51:36;;;;;;;277.90;61.05;;;;;;;13.53;100.00;101535.69;6106605;23;20006;-96
2023/05/11 09:54:21;;;;;;;245.48;58.50;;;;;;;13.64;100.00;101529.81;6081085;23;20039;-96
2023/05/11 09:56:53;;;;;;;242.60;52.92;;;;;;;13.75;100.00;101536.16;6078873;23;20003;-96
2023/05/11 09:59:42;;;;;;;254.15;54.58;;;;;;;13.62;100.00;101536.75;6079550;23;20433;-96
2023/05/11 10:02:17;;;;;;;255.68;58.90;;;;;;;13.61;100.00;101533.22;6069768;23;20013;-96
2023/05/11 10:04:43;;;;;;;255.25;60.95;;;;;;;13.63;100.00;101541.13;6078968;23;20018;-96
2023/05/11 10:07:08;;;;;;;254.52;57.55;;;;;;;13.70;100.00;101538.69;6083415;23;20730;-96
2023/05/11 10:09:34;;;;;;;260.58;54.28;;;;;;;13.65;100.00;101534.19;6082439;23;20087;-96
2023/05/11 10:12:01;;;;;;;267.52;59.90;;;;;;;13.66;100.00;101536.84;6082463;23;20325;-96
2023/05/11 10:14:28;;;;;;;273.77;58.70;;;;;;;13.66;100.00;101528.13;6080705;23;20456;-96
2023/05/11 10:16:56;;;;;;;301.80;65.50;;;;;;;13.72;100.00;101534.34;6081310;23;20006;-97
2023/05/11 10:19:22;;;;;;;276.33;64.20;;;;;;;13.83;100.00;101533.69;6082698;23;20014;-96
2023/05/11 10:21:50;;;;;;;261.90;56.67;;;;;;;13.92;100.00;101528.66;6083726;23;20028;-96
2023/05/11 10:24:16;;;;;;;278.35;62.97;;;;;;;13.95;100.00;101543.53;6084019;23;20018;-96
2023/05/11 10:26:42;;;;;;;267.52;61.88;;;;;;;14.02;100.00;101533.25;6086207;23;20006;-96
2023/05/11 10:29:08;;;;;;;242.98;53.22;;;;;;;14.16;100.00;101527.38;6086677;23;20010;-96
2023/05/11 10:31:36;;;;;;;251.20;57.80;;;;;;;14.02;100.00;101540.19;6087351;23;20149;-96
2023/05/11 10:34:03;;;;;;;248.93;56.80;;;;;;;13.96;100.00;101541.00;6086562;23;20081;-97
2023/05/11 10:36:29;;;;;;;277.70;59.70;;;;;;;13.90;100.00;101538.22;6089071;23;20007;-96
2023/05/11 10:38:54;;;;;;;296.00;63.22;;;;;;;13.93;100.00;101540.03;6089845;23;20064;-96
2023/05/11 10:41:20;;;;;;;259.58;58.67;;;;;;;13.99;100.00;101529.66;6090354;23;20010;-96
2023/05/11 10:44:12;;;;;;;267.63;59.92;;;;;;;14.09;100.00;101531.59;6089670;23;20021;-96
2023/05/11 10:47:00;;;;;;;253.98;58.75;;;;;;;14.21;100.00;101531.00;6090872;23;20012;-96
2023/05/11 10:49:32;;;;;;;237.73;57.55;;;;;;;14.33;100.00;101528.59;6091812;23;20018;-96
2023/05/11 10:52:07;;;;;;;223.80;53.08;;;;;;;14.45;98.57;101520.06;6091252;23;20069;-98
2023/05/11 10:54:51;;;;;;;225.55;51.47;;;;;;;14.48;96.79;101519.25;6091212;23;19998;-96
2023/05/11 10:57:34;;;;;;;222.25;48.78;;;;;;;14.41;98.36;101523.47;6091492;23;20014;-96
2023/05/11 11:00:10;;;;;;;230.52;52.08;;;;;;;14.38;96.81;101524.34;6091767;23;20002;-97